sensor_id;sensor_type;location;lat;lon;timestamp;P1;durP1;ratioP1;P2;durP2;ratioP2
13108;SDS011;6620;53.734;11.510;2022-12-10T00:02:00;17.48;;;8.88;;
13108;SDS011;6620;53.734;11.510;2022-12-10T00:04:26;17.70;;;9.52;;
13108;SDS011;6620;53.734;11.510;2022-12-10T00:06:51;19.42;;;9.32;;
13108;SDS011;6620;53.734;11.510;2022-12-10T00:09:17;18.02;;;9.68;;
13108;SDS011;6620;53.734;11.510;2022-12-10T00:11:42;16.67;;;8.75;;
13108;SDS011;6620;53.734;11.510;2022-12-10T00:14:09;15.77;;;9.20;;
13108;SDS011;6620;53.734;11.510;2022-12-10T00:16:35;19.52;;;10.30;;
13108;SDS011;6620;53.734;11.510;2022-12-10T00:19:01;17.55;;;9.80;;
13108;SDS011;6620;53.734;11.510;2022-12-10T00:21:28;17.45;;;9.35;;
13108;SDS011;6620;53.734;11.510;2022-12-10T00:23:53;16.08;;;9.18;;
13108;SDS011;6620;53.734;11.510;2022-12-10T00:26:20;15.70;;;8.55;;
13108;SDS011;6620;53.734;11.510;2022-12-10T00:28:46;17.60;;;8.95;;
13108;SDS011;6620;53.734;11.510;2022-12-10T00:31:12;15.57;;;8.85;;
13108;SDS011;6620;53.734;11.510;2022-12-10T00:33:38;13.68;;;7.57;;
13108;SDS011;6620;53.734;11.510;2022-12-10T00:36:04;16.65;;;8.27;;
13108;SDS011;6620;53.734;11.510;2022-12-10T00:38:29;16.50;;;8.77;;
13108;SDS011;6620;53.734;11.510;2022-12-10T00:40:55;18.38;;;9.20;;
13108;SDS011;6620;53.734;11.510;2022-12-10T00:43:20;15.43;;;8.50;;
13108;SDS011;6620;53.734;11.510;2022-12-10T00:45:45;19.23;;;9.40;;
13108;SDS011;6620;53.734;11.510;2022-12-10T00:48:10;16.10;;;8.23;;
13108;SDS011;6620;53.734;11.510;2022-12-10T00:50:35;20.83;;;9.03;;
13108;SDS011;6620;53.734;11.510;2022-12-10T00:53:01;16.37;;;8.63;;
13108;SDS011;6620;53.734;11.510;2022-12-10T00:55:26;18.83;;;8.80;;
13108;SDS011;6620;53.734;11.510;2022-12-10T00:57:51;17.07;;;9.03;;
13108;SDS011;6620;53.734;11.510;2022-12-10T01:00:16;16.77;;;8.95;;
13108;SDS011;6620;53.734;11.510;2022-12-10T01:02:42;13.48;;;7.72;;
13108;SDS011;6620;53.734;11.510;2022-12-10T01:05:07;16.63;;;8.75;;
13108;SDS011;6620;53.734;11.510;2022-12-10T01:07:32;16.05;;;8.35;;
13108;SDS011;6620;53.734;11.510;2022-12-10T01:09:57;16.30;;;8.30;;
13108;SDS011;6620;53.734;11.510;2022-12-10T01:12:23;15.55;;;8.02;;
13108;SDS011;6620;53.734;11.510;2022-12-10T01:14:48;16.77;;;7.93;;
13108;SDS011;6620;53.734;11.510;2022-12-10T01:17:13;24.47;;;8.30;;
13108;SDS011;6620;53.734;11.510;2022-12-10T01:19:38;16.45;;;8.45;;
13108;SDS011;6620;53.734;11.510;2022-12-10T01:22:04;14.87;;;8.17;;
13108;SDS011;6620;53.734;11.510;2022-12-10T01:24:29;14.25;;;8.27;;
13108;SDS011;6620;53.734;11.510;2022-12-10T01:26:54;13.13;;;7.75;;
13108;SDS011;6620;53.734;11.510;2022-12-10T01:29:20;16.27;;;8.07;;
13108;SDS011;6620;53.734;11.510;2022-12-10T01:31:45;19.15;;;9.75;;
13108;SDS011;6620;53.734;11.510;2022-12-10T01:34:13;14.13;;;7.53;;
13108;SDS011;6620;53.734;11.510;2022-12-10T01:36:40;17.52;;;9.18;;
13108;SDS011;6620;53.734;11.510;2022-12-10T01:39:07;18.02;;;8.45;;
13108;SDS011;6620;53.734;11.510;2022-12-10T01:41:34;17.80;;;9.35;;
13108;SDS011;6620;53.734;11.510;2022-12-10T01:46:26;14.20;;;8.55;;
13108;SDS011;6620;53.734;11.510;2022-12-10T01:48:52;16.40;;;7.97;;
13108;SDS011;6620;53.734;11.510;2022-12-10T01:51:17;15.52;;;7.38;;
13108;SDS011;6620;53.734;11.510;2022-12-10T01:53:43;15.77;;;7.20;;
13108;SDS011;6620;53.734;11.510;2022-12-10T01:56:11;15.45;;;8.02;;
13108;SDS011;6620;53.734;11.510;2022-12-10T01:58:37;14.95;;;7.32;;
13108;SDS011;6620;53.734;11.510;2022-12-10T02:01:13;17.10;;;8.35;;
13108;SDS011;6620;53.734;11.510;2022-12-10T02:08:48;14.80;;;7.10;;
13108;SDS011;6620;53.734;11.510;2022-12-10T02:11:22;17.42;;;7.57;;
13108;SDS011;6620;53.734;11.510;2022-12-10T02:13:56;18.20;;;7.55;;
13108;SDS011;6620;53.734;11.510;2022-12-10T02:18:58;15.13;;;7.20;;
13108;SDS011;6620;53.734;11.510;2022-12-10T02:21:26;15.38;;;7.75;;
13108;SDS011;6620;53.734;11.510;2022-12-10T02:23:57;14.23;;;7.45;;
13108;SDS011;6620;53.734;11.510;2022-12-10T02:26:37;13.90;;;7.72;;
13108;SDS011;6620;53.734;11.510;2022-12-10T02:29:06;14.45;;;7.82;;
13108;SDS011;6620;53.734;11.510;2022-12-10T02:31:35;16.45;;;8.45;;
13108;SDS011;6620;53.734;11.510;2022-12-10T02:34:02;15.52;;;7.53;;
13108;SDS011;6620;53.734;11.510;2022-12-10T02:36:30;16.65;;;8.32;;
13108;SDS011;6620;53.734;11.510;2022-12-10T02:38:58;15.25;;;7.85;;
13108;SDS011;6620;53.734;11.510;2022-12-10T02:41:33;14.82;;;8.05;;
13108;SDS011;6620;53.734;11.510;2022-12-10T02:43:59;15.10;;;8.18;;
13108;SDS011;6620;53.734;11.510;2022-12-10T02:46:25;13.82;;;7.70;;
13108;SDS011;6620;53.734;11.510;2022-12-10T02:48:53;13.95;;;8.45;;
13108;SDS011;6620;53.734;11.510;2022-12-10T02:51:19;14.10;;;7.50;;
13108;SDS011;6620;53.734;11.510;2022-12-10T02:53:44;18.40;;;8.27;;
13108;SDS011;6620;53.734;11.510;2022-12-10T02:58:58;14.05;;;7.53;;
13108;SDS011;6620;53.734;11.510;2022-12-10T03:04:01;15.88;;;8.55;;
13108;SDS011;6620;53.734;11.510;2022-12-10T03:06:33;20.63;;;8.80;;
13108;SDS011;6620;53.734;11.510;2022-12-10T03:09:02;13.57;;;7.70;;
13108;SDS011;6620;53.734;11.510;2022-12-10T03:11:28;15.27;;;8.70;;
13108;SDS011;6620;53.734;11.510;2022-12-10T03:16:33;14.05;;;7.88;;
13108;SDS011;6620;53.734;11.510;2022-12-10T03:19:01;14.90;;;7.22;;
13108;SDS011;6620;53.734;11.510;2022-12-10T03:21:27;12.82;;;7.68;;
13108;SDS011;6620;53.734;11.510;2022-12-10T03:23:53;15.50;;;7.57;;
13108;SDS011;6620;53.734;11.510;2022-12-10T03:26:19;12.75;;;7.45;;
13108;SDS011;6620;53.734;11.510;2022-12-10T03:28:46;15.27;;;8.43;;
13108;SDS011;6620;53.734;11.510;2022-12-10T03:31:12;15.55;;;7.70;;
13108;SDS011;6620;53.734;11.510;2022-12-10T03:33:39;14.77;;;7.53;;
13108;SDS011;6620;53.734;11.510;2022-12-10T03:36:05;14.55;;;7.93;;
13108;SDS011;6620;53.734;11.510;2022-12-10T03:38:30;13.65;;;7.55;;
13108;SDS011;6620;53.734;11.510;2022-12-10T03:40:55;14.57;;;8.10;;
13108;SDS011;6620;53.734;11.510;2022-12-10T03:43:21;16.00;;;7.22;;
13108;SDS011;6620;53.734;11.510;2022-12-10T03:45:47;14.82;;;7.47;;
13108;SDS011;6620;53.734;11.510;2022-12-10T03:48:12;14.45;;;7.45;;
13108;SDS011;6620;53.734;11.510;2022-12-10T03:50:37;16.10;;;8.27;;
13108;SDS011;6620;53.734;11.510;2022-12-10T03:53:02;14.20;;;7.67;;
13108;SDS011;6620;53.734;11.510;2022-12-10T03:55:27;16.07;;;8.20;;
13108;SDS011;6620;53.734;11.510;2022-12-10T03:57:52;15.73;;;8.60;;
13108;SDS011;6620;53.734;11.510;2022-12-10T04:00:18;15.27;;;8.00;;
13108;SDS011;6620;53.734;11.510;2022-12-10T04:02:43;13.82;;;7.15;;
13108;SDS011;6620;53.734;11.510;2022-12-10T04:05:08;15.57;;;7.97;;
13108;SDS011;6620;53.734;11.510;2022-12-10T04:07:34;19.27;;;8.70;;
13108;SDS011;6620;53.734;11.510;2022-12-10T04:09:59;16.20;;;9.05;;
13108;SDS011;6620;53.734;11.510;2022-12-10T04:12:24;19.48;;;9.23;;
13108;SDS011;6620;53.734;11.510;2022-12-10T04:14:49;16.70;;;8.60;;
13108;SDS011;6620;53.734;11.510;2022-12-10T04:17:33;14.38;;;7.57;;
13108;SDS011;6620;53.734;11.510;2022-12-10T04:19:58;14.65;;;7.57;;
13108;SDS011;6620;53.734;11.510;2022-12-10T04:22:24;14.00;;;8.13;;
13108;SDS011;6620;53.734;11.510;2022-12-10T04:25:08;14.20;;;8.07;;
13108;SDS011;6620;53.734;11.510;2022-12-10T04:27:54;14.95;;;7.47;;
13108;SDS011;6620;53.734;11.510;2022-12-10T04:30:19;14.30;;;6.97;;
13108;SDS011;6620;53.734;11.510;2022-12-10T04:32:44;14.80;;;6.90;;
13108;SDS011;6620;53.734;11.510;2022-12-10T04:35:10;13.85;;;7.13;;
13108;SDS011;6620;53.734;11.510;2022-12-10T04:37:35;13.77;;;8.07;;
13108;SDS011;6620;53.734;11.510;2022-12-10T04:40:00;13.60;;;7.07;;
13108;SDS011;6620;53.734;11.510;2022-12-10T04:42:26;13.82;;;7.93;;
13108;SDS011;6620;53.734;11.510;2022-12-10T04:44:51;13.20;;;6.55;;
13108;SDS011;6620;53.734;11.510;2022-12-10T04:47:16;15.93;;;7.43;;
13108;SDS011;6620;53.734;11.510;2022-12-10T04:49:41;14.55;;;6.97;;
13108;SDS011;6620;53.734;11.510;2022-12-10T04:52:07;12.95;;;6.78;;
13108;SDS011;6620;53.734;11.510;2022-12-10T04:54:33;12.82;;;7.22;;
13108;SDS011;6620;53.734;11.510;2022-12-10T04:56:58;15.23;;;8.02;;
13108;SDS011;6620;53.734;11.510;2022-12-10T04:59:23;15.70;;;7.43;;
13108;SDS011;6620;53.734;11.510;2022-12-10T05:01:49;17.13;;;7.83;;
13108;SDS011;6620;53.734;11.510;2022-12-10T05:04:15;13.55;;;7.28;;
13108;SDS011;6620;53.734;11.510;2022-12-10T05:06:41;14.57;;;6.95;;
13108;SDS011;6620;53.734;11.510;2022-12-10T05:09:07;14.45;;;6.97;;
13108;SDS011;6620;53.734;11.510;2022-12-10T05:11:32;14.57;;;6.78;;
13108;SDS011;6620;53.734;11.510;2022-12-10T05:13:58;13.55;;;7.78;;
13108;SDS011;6620;53.734;11.510;2022-12-10T05:16:24;11.13;;;5.90;;
13108;SDS011;6620;53.734;11.510;2022-12-10T05:18:50;13.23;;;6.82;;
13108;SDS011;6620;53.734;11.510;2022-12-10T05:21:16;14.77;;;6.82;;
13108;SDS011;6620;53.734;11.510;2022-12-10T05:23:43;14.48;;;6.75;;
13108;SDS011;6620;53.734;11.510;2022-12-10T05:28:38;13.75;;;7.80;;
13108;SDS011;6620;53.734;11.510;2022-12-10T05:31:04;13.35;;;6.32;;
13108;SDS011;6620;53.734;11.510;2022-12-10T05:33:30;15.35;;;6.22;;
13108;SDS011;6620;53.734;11.510;2022-12-10T05:35:56;13.90;;;6.63;;
13108;SDS011;6620;53.734;11.510;2022-12-10T05:38:22;15.65;;;6.55;;
13108;SDS011;6620;53.734;11.510;2022-12-10T05:40:47;11.82;;;6.38;;
13108;SDS011;6620;53.734;11.510;2022-12-10T05:43:13;12.10;;;6.38;;
13108;SDS011;6620;53.734;11.510;2022-12-10T05:45:38;11.30;;;5.82;;
13108;SDS011;6620;53.734;11.510;2022-12-10T05:48:03;10.50;;;5.87;;
13108;SDS011;6620;53.734;11.510;2022-12-10T05:50:30;12.18;;;5.75;;
13108;SDS011;6620;53.734;11.510;2022-12-10T05:52:55;11.60;;;6.65;;
13108;SDS011;6620;53.734;11.510;2022-12-10T05:55:20;11.27;;;5.90;;
13108;SDS011;6620;53.734;11.510;2022-12-10T05:57:46;11.70;;;6.10;;
13108;SDS011;6620;53.734;11.510;2022-12-10T06:00:11;10.73;;;5.20;;
13108;SDS011;6620;53.734;11.510;2022-12-10T06:02:36;10.75;;;5.65;;
13108;SDS011;6620;53.734;11.510;2022-12-10T06:05:01;10.27;;;6.03;;
13108;SDS011;6620;53.734;11.510;2022-12-10T06:07:27;11.15;;;6.32;;
13108;SDS011;6620;53.734;11.510;2022-12-10T06:09:54;12.55;;;5.95;;
13108;SDS011;6620;53.734;11.510;2022-12-10T06:12:19;12.77;;;5.97;;
13108;SDS011;6620;53.734;11.510;2022-12-10T06:14:44;13.10;;;5.77;;
13108;SDS011;6620;53.734;11.510;2022-12-10T06:17:10;12.95;;;5.88;;
13108;SDS011;6620;53.734;11.510;2022-12-10T06:19:36;12.43;;;5.90;;
13108;SDS011;6620;53.734;11.510;2022-12-10T06:22:01;11.80;;;5.73;;
13108;SDS011;6620;53.734;11.510;2022-12-10T06:24:26;15.23;;;6.20;;
13108;SDS011;6620;53.734;11.510;2022-12-10T06:26:51;12.30;;;5.68;;
13108;SDS011;6620;53.734;11.510;2022-12-10T06:29:16;10.50;;;5.47;;
13108;SDS011;6620;53.734;11.510;2022-12-10T06:31:42;11.93;;;6.00;;
13108;SDS011;6620;53.734;11.510;2022-12-10T06:34:07;11.23;;;5.97;;
13108;SDS011;6620;53.734;11.510;2022-12-10T06:36:33;12.93;;;6.33;;
13108;SDS011;6620;53.734;11.510;2022-12-10T06:38:58;11.35;;;5.78;;
13108;SDS011;6620;53.734;11.510;2022-12-10T06:41:23;10.00;;;5.68;;
13108;SDS011;6620;53.734;11.510;2022-12-10T06:43:48;12.05;;;5.60;;
13108;SDS011;6620;53.734;11.510;2022-12-10T06:46:15;12.63;;;5.10;;
13108;SDS011;6620;53.734;11.510;2022-12-10T06:48:40;11.80;;;5.97;;
13108;SDS011;6620;53.734;11.510;2022-12-10T06:51:06;10.00;;;5.38;;
13108;SDS011;6620;53.734;11.510;2022-12-10T06:53:32;12.02;;;5.97;;
13108;SDS011;6620;53.734;11.510;2022-12-10T06:55:58;9.40;;;5.55;;
13108;SDS011;6620;53.734;11.510;2022-12-10T06:58:23;12.20;;;5.65;;
13108;SDS011;6620;53.734;11.510;2022-12-10T07:00:48;10.03;;;5.50;;
13108;SDS011;6620;53.734;11.510;2022-12-10T07:03:13;9.33;;;5.27;;
13108;SDS011;6620;53.734;11.510;2022-12-10T07:05:39;10.20;;;5.23;;
13108;SDS011;6620;53.734;11.510;2022-12-10T07:08:04;9.47;;;4.67;;
13108;SDS011;6620;53.734;11.510;2022-12-10T07:10:29;11.95;;;5.53;;
13108;SDS011;6620;53.734;11.510;2022-12-10T07:12:54;14.18;;;7.45;;
13108;SDS011;6620;53.734;11.510;2022-12-10T07:15:19;9.73;;;5.77;;
13108;SDS011;6620;53.734;11.510;2022-12-10T07:17:45;10.38;;;5.53;;
13108;SDS011;6620;53.734;11.510;2022-12-10T07:20:10;10.73;;;5.18;;
13108;SDS011;6620;53.734;11.510;2022-12-10T07:22:36;10.00;;;4.95;;
13108;SDS011;6620;53.734;11.510;2022-12-10T07:25:02;10.13;;;4.72;;
13108;SDS011;6620;53.734;11.510;2022-12-10T07:27:28;7.72;;;4.75;;
13108;SDS011;6620;53.734;11.510;2022-12-10T07:29:55;9.77;;;5.10;;
13108;SDS011;6620;53.734;11.510;2022-12-10T07:32:21;7.28;;;4.40;;
13108;SDS011;6620;53.734;11.510;2022-12-10T07:34:46;7.60;;;4.73;;
13108;SDS011;6620;53.734;11.510;2022-12-10T07:37:11;9.33;;;5.57;;
13108;SDS011;6620;53.734;11.510;2022-12-10T07:39:36;8.15;;;4.45;;
13108;SDS011;6620;53.734;11.510;2022-12-10T07:42:01;8.73;;;5.38;;
13108;SDS011;6620;53.734;11.510;2022-12-10T07:44:27;8.55;;;4.13;;
13108;SDS011;6620;53.734;11.510;2022-12-10T07:46:52;7.53;;;4.18;;
13108;SDS011;6620;53.734;11.510;2022-12-10T07:49:18;11.63;;;5.03;;
13108;SDS011;6620;53.734;11.510;2022-12-10T07:51:44;9.02;;;5.35;;
13108;SDS011;6620;53.734;11.510;2022-12-10T07:54:10;8.45;;;4.45;;
13108;SDS011;6620;53.734;11.510;2022-12-10T07:56:35;9.07;;;4.97;;
13108;SDS011;6620;53.734;11.510;2022-12-10T07:59:00;6.70;;;3.80;;
13108;SDS011;6620;53.734;11.510;2022-12-10T08:01:26;8.38;;;5.55;;
13108;SDS011;6620;53.734;11.510;2022-12-10T08:03:52;8.00;;;4.70;;
13108;SDS011;6620;53.734;11.510;2022-12-10T08:06:18;7.50;;;4.15;;
13108;SDS011;6620;53.734;11.510;2022-12-10T08:08:43;7.38;;;4.78;;
13108;SDS011;6620;53.734;11.510;2022-12-10T08:11:09;9.40;;;4.68;;
13108;SDS011;6620;53.734;11.510;2022-12-10T08:13:35;8.32;;;4.70;;
13108;SDS011;6620;53.734;11.510;2022-12-10T08:16:11;8.57;;;4.93;;
13108;SDS011;6620;53.734;11.510;2022-12-10T08:18:36;7.47;;;4.70;;
13108;SDS011;6620;53.734;11.510;2022-12-10T08:21:05;10.75;;;5.80;;
13108;SDS011;6620;53.734;11.510;2022-12-10T08:23:31;8.20;;;4.68;;
13108;SDS011;6620;53.734;11.510;2022-12-10T08:25:56;12.15;;;5.75;;
13108;SDS011;6620;53.734;11.510;2022-12-10T08:28:21;10.17;;;5.07;;
13108;SDS011;6620;53.734;11.510;2022-12-10T08:30:47;9.37;;;4.20;;
13108;SDS011;6620;53.734;11.510;2022-12-10T08:33:12;9.70;;;5.50;;
13108;SDS011;6620;53.734;11.510;2022-12-10T08:35:37;9.73;;;4.97;;
13108;SDS011;6620;53.734;11.510;2022-12-10T08:38:02;6.97;;;4.03;;
13108;SDS011;6620;53.734;11.510;2022-12-10T08:40:27;9.43;;;5.00;;
13108;SDS011;6620;53.734;11.510;2022-12-10T08:42:53;9.03;;;5.40;;
13108;SDS011;6620;53.734;11.510;2022-12-10T08:45:18;9.68;;;5.43;;
13108;SDS011;6620;53.734;11.510;2022-12-10T08:47:43;9.47;;;4.90;;
13108;SDS011;6620;53.734;11.510;2022-12-10T08:50:08;9.73;;;5.00;;
13108;SDS011;6620;53.734;11.510;2022-12-10T08:52:33;9.85;;;5.20;;
13108;SDS011;6620;53.734;11.510;2022-12-10T08:54:58;8.93;;;5.70;;
13108;SDS011;6620;53.734;11.510;2022-12-10T08:57:24;10.97;;;5.90;;
13108;SDS011;6620;53.734;11.510;2022-12-10T08:59:49;8.40;;;5.00;;
13108;SDS011;6620;53.734;11.510;2022-12-10T09:02:14;9.17;;;5.80;;
13108;SDS011;6620;53.734;11.510;2022-12-10T09:04:39;12.13;;;6.88;;
13108;SDS011;6620;53.734;11.510;2022-12-10T09:07:06;11.48;;;6.35;;
13108;SDS011;6620;53.734;11.510;2022-12-10T09:09:31;10.85;;;5.75;;
13108;SDS011;6620;53.734;11.510;2022-12-10T09:11:56;10.32;;;5.35;;
13108;SDS011;6620;53.734;11.510;2022-12-10T09:14:22;14.40;;;6.10;;
13108;SDS011;6620;53.734;11.510;2022-12-10T09:16:48;10.90;;;5.45;;
13108;SDS011;6620;53.734;11.510;2022-12-10T09:19:13;9.70;;;6.00;;
13108;SDS011;6620;53.734;11.510;2022-12-10T09:21:38;9.80;;;6.30;;
13108;SDS011;6620;53.734;11.510;2022-12-10T09:24:04;9.75;;;5.50;;
13108;SDS011;6620;53.734;11.510;2022-12-10T09:26:29;9.95;;;5.90;;
13108;SDS011;6620;53.734;11.510;2022-12-10T09:28:54;10.60;;;5.63;;
13108;SDS011;6620;53.734;11.510;2022-12-10T09:31:20;8.35;;;5.68;;
13108;SDS011;6620;53.734;11.510;2022-12-10T09:33:46;9.70;;;6.00;;
13108;SDS011;6620;53.734;11.510;2022-12-10T09:36:12;11.32;;;6.22;;
13108;SDS011;6620;53.734;11.510;2022-12-10T09:38:38;10.48;;;6.35;;
13108;SDS011;6620;53.734;11.510;2022-12-10T09:41:05;10.15;;;6.38;;
13108;SDS011;6620;53.734;11.510;2022-12-10T09:53:44;9.57;;;6.50;;
13108;SDS011;6620;53.734;11.510;2022-12-10T09:56:18;11.38;;;6.00;;
13108;SDS011;6620;53.734;11.510;2022-12-10T09:58:44;10.52;;;6.70;;
13108;SDS011;6620;53.734;11.510;2022-12-10T10:01:10;10.10;;;6.53;;
13108;SDS011;6620;53.734;11.510;2022-12-10T10:03:38;10.68;;;6.47;;
13108;SDS011;6620;53.734;11.510;2022-12-10T10:06:04;10.40;;;6.47;;
13108;SDS011;6620;53.734;11.510;2022-12-10T10:11:10;13.48;;;7.28;;
13108;SDS011;6620;53.734;11.510;2022-12-10T10:16:10;10.02;;;6.47;;
13108;SDS011;6620;53.734;11.510;2022-12-10T10:18:39;11.18;;;6.85;;
13108;SDS011;6620;53.734;11.510;2022-12-10T10:21:06;10.15;;;6.38;;
13108;SDS011;6620;53.734;11.510;2022-12-10T10:23:32;10.57;;;7.00;;
13108;SDS011;6620;53.734;11.510;2022-12-10T10:25:58;9.55;;;6.90;;
13108;SDS011;6620;53.734;11.510;2022-12-10T10:28:23;11.18;;;7.15;;
13108;SDS011;6620;53.734;11.510;2022-12-10T10:30:48;10.93;;;6.65;;
13108;SDS011;6620;53.734;11.510;2022-12-10T10:33:15;9.38;;;6.47;;
13108;SDS011;6620;53.734;11.510;2022-12-10T10:35:48;10.52;;;6.38;;
13108;SDS011;6620;53.734;11.510;2022-12-10T10:38:15;10.43;;;6.88;;
13108;SDS011;6620;53.734;11.510;2022-12-10T10:40:45;11.48;;;6.85;;
13108;SDS011;6620;53.734;11.510;2022-12-10T10:43:53;11.10;;;6.85;;
13108;SDS011;6620;53.734;11.510;2022-12-10T10:46:20;10.52;;;6.18;;
13108;SDS011;6620;53.734;11.510;2022-12-10T10:48:45;11.02;;;6.68;;
13108;SDS011;6620;53.734;11.510;2022-12-10T10:56:09;13.05;;;7.97;;
13108;SDS011;6620;53.734;11.510;2022-12-10T10:58:35;12.50;;;6.82;;
13108;SDS011;6620;53.734;11.510;2022-12-10T11:01:02;10.50;;;6.93;;
13108;SDS011;6620;53.734;11.510;2022-12-10T11:03:28;12.80;;;6.47;;
13108;SDS011;6620;53.734;11.510;2022-12-10T11:05:55;11.85;;;6.85;;
13108;SDS011;6620;53.734;11.510;2022-12-10T11:08:21;11.95;;;7.15;;
13108;SDS011;6620;53.734;11.510;2022-12-10T11:10:54;11.57;;;7.25;;
13108;SDS011;6620;53.734;11.510;2022-12-10T11:15:47;10.03;;;6.20;;
13108;SDS011;6620;53.734;11.510;2022-12-10T11:18:31;12.45;;;6.95;;
13108;SDS011;6620;53.734;11.510;2022-12-10T11:20:58;11.43;;;6.85;;
13108;SDS011;6620;53.734;11.510;2022-12-10T11:23:26;11.60;;;6.65;;
13108;SDS011;6620;53.734;11.510;2022-12-10T11:31:38;12.20;;;6.80;;
13108;SDS011;6620;53.734;11.510;2022-12-10T11:34:08;11.68;;;7.07;;
13108;SDS011;6620;53.734;11.510;2022-12-10T11:39:16;11.80;;;6.40;;
13108;SDS011;6620;53.734;11.510;2022-12-10T11:41:53;11.43;;;7.00;;
13108;SDS011;6620;53.734;11.510;2022-12-10T11:44:26;10.10;;;6.55;;
13108;SDS011;6620;53.734;11.510;2022-12-10T11:49:29;11.48;;;6.05;;
13108;SDS011;6620;53.734;11.510;2022-12-10T11:52:02;11.20;;;7.43;;
13108;SDS011;6620;53.734;11.510;2022-12-10T11:54:39;12.45;;;6.93;;
13108;SDS011;6620;53.734;11.510;2022-12-10T11:57:14;10.77;;;6.80;;
13108;SDS011;6620;53.734;11.510;2022-12-10T12:02:31;9.68;;;6.75;;
13108;SDS011;6620;53.734;11.510;2022-12-10T12:07:26;12.23;;;7.07;;
13108;SDS011;6620;53.734;11.510;2022-12-10T12:14:57;10.97;;;6.90;;
13108;SDS011;6620;53.734;11.510;2022-12-10T12:17:28;11.95;;;6.80;;
13108;SDS011;6620;53.734;11.510;2022-12-10T12:20:00;12.77;;;6.10;;
13108;SDS011;6620;53.734;11.510;2022-12-10T12:22:27;10.75;;;6.40;;
13108;SDS011;6620;53.734;11.510;2022-12-10T12:24:54;13.50;;;6.82;;
13108;SDS011;6620;53.734;11.510;2022-12-10T12:30:11;11.93;;;6.87;;
13108;SDS011;6620;53.734;11.510;2022-12-10T12:35:21;11.65;;;6.97;;
13108;SDS011;6620;53.734;11.510;2022-12-10T12:37:56;18.10;;;8.93;;
13108;SDS011;6620;53.734;11.510;2022-12-10T12:40:35;10.93;;;6.60;;
13108;SDS011;6620;53.734;11.510;2022-12-10T12:43:19;11.68;;;7.40;;
13108;SDS011;6620;53.734;11.510;2022-12-10T12:45:46;11.98;;;6.68;;
13108;SDS011;6620;53.734;11.510;2022-12-10T12:50:49;11.15;;;7.13;;
13108;SDS011;6620;53.734;11.510;2022-12-10T12:53:16;13.38;;;6.57;;
13108;SDS011;6620;53.734;11.510;2022-12-10T12:55:59;11.55;;;7.22;;
13108;SDS011;6620;53.734;11.510;2022-12-10T12:58:31;13.98;;;6.55;;
13108;SDS011;6620;53.734;11.510;2022-12-10T13:01:00;13.15;;;7.07;;
13108;SDS011;6620;53.734;11.510;2022-12-10T13:03:41;10.80;;;6.63;;
13108;SDS011;6620;53.734;11.510;2022-12-10T13:08:49;12.27;;;6.75;;
13108;SDS011;6620;53.734;11.510;2022-12-10T13:11:16;12.10;;;7.03;;
13108;SDS011;6620;53.734;11.510;2022-12-10T13:16:33;10.50;;;6.63;;
13108;SDS011;6620;53.734;11.510;2022-12-10T13:27:03;10.90;;;6.18;;
13108;SDS011;6620;53.734;11.510;2022-12-10T13:29:28;12.68;;;6.75;;
13108;SDS011;6620;53.734;11.510;2022-12-10T13:31:55;10.00;;;6.13;;
13108;SDS011;6620;53.734;11.510;2022-12-10T13:34:22;11.52;;;6.32;;
13108;SDS011;6620;53.734;11.510;2022-12-10T13:47:24;9.50;;;5.43;;
13108;SDS011;6620;53.734;11.510;2022-12-10T13:49:59;10.35;;;6.70;;
13108;SDS011;6620;53.734;11.510;2022-12-10T13:55:15;12.10;;;6.50;;
13108;SDS011;6620;53.734;11.510;2022-12-10T13:57:53;10.07;;;5.95;;
13108;SDS011;6620;53.734;11.510;2022-12-10T14:00:22;10.75;;;6.68;;
13108;SDS011;6620;53.734;11.510;2022-12-10T14:05:37;11.53;;;6.33;;
13108;SDS011;6620;53.734;11.510;2022-12-10T14:08:04;8.43;;;5.60;;
13108;SDS011;6620;53.734;11.510;2022-12-10T14:10:31;10.45;;;5.57;;
13108;SDS011;6620;53.734;11.510;2022-12-10T14:12:57;10.05;;;6.35;;
13108;SDS011;6620;53.734;11.510;2022-12-10T14:15:24;10.85;;;6.72;;
13108;SDS011;6620;53.734;11.510;2022-12-10T14:17:50;11.63;;;6.82;;
13108;SDS011;6620;53.734;11.510;2022-12-10T14:20:17;9.18;;;6.45;;
13108;SDS011;6620;53.734;11.510;2022-12-10T14:22:47;9.40;;;5.78;;
13108;SDS011;6620;53.734;11.510;2022-12-10T14:25:14;11.98;;;7.13;;
13108;SDS011;6620;53.734;11.510;2022-12-10T14:27:40;12.05;;;7.43;;
13108;SDS011;6620;53.734;11.510;2022-12-10T14:32:32;10.65;;;6.47;;
13108;SDS011;6620;53.734;11.510;2022-12-10T14:34:58;9.55;;;6.55;;
13108;SDS011;6620;53.734;11.510;2022-12-10T14:37:24;10.23;;;6.57;;
13108;SDS011;6620;53.734;11.510;2022-12-10T14:39:50;9.27;;;5.88;;
13108;SDS011;6620;53.734;11.510;2022-12-10T14:42:16;10.40;;;6.05;;
13108;SDS011;6620;53.734;11.510;2022-12-10T14:44:41;19.85;;;7.85;;
13108;SDS011;6620;53.734;11.510;2022-12-10T14:47:15;9.23;;;6.10;;
13108;SDS011;6620;53.734;11.510;2022-12-10T14:49:41;9.90;;;5.75;;
13108;SDS011;6620;53.734;11.510;2022-12-10T14:52:11;11.00;;;6.28;;
13108;SDS011;6620;53.734;11.510;2022-12-10T14:54:36;9.25;;;5.57;;
13108;SDS011;6620;53.734;11.510;2022-12-10T14:57:05;9.35;;;6.03;;
13108;SDS011;6620;53.734;11.510;2022-12-10T14:59:43;10.18;;;6.05;;
13108;SDS011;6620;53.734;11.510;2022-12-10T15:02:13;10.55;;;6.35;;
13108;SDS011;6620;53.734;11.510;2022-12-10T15:04:43;11.20;;;6.63;;
13108;SDS011;6620;53.734;11.510;2022-12-10T15:07:20;10.48;;;6.72;;
13108;SDS011;6620;53.734;11.510;2022-12-10T15:09:48;9.15;;;5.30;;
13108;SDS011;6620;53.734;11.510;2022-12-10T15:12:18;11.73;;;6.68;;
13108;SDS011;6620;53.734;11.510;2022-12-10T15:14:44;8.93;;;5.85;;
13108;SDS011;6620;53.734;11.510;2022-12-10T15:17:32;11.27;;;6.65;;
13108;SDS011;6620;53.734;11.510;2022-12-10T15:19:58;12.43;;;6.43;;
13108;SDS011;6620;53.734;11.510;2022-12-10T15:22:24;10.50;;;5.57;;
13108;SDS011;6620;53.734;11.510;2022-12-10T15:24:51;10.48;;;6.05;;
13108;SDS011;6620;53.734;11.510;2022-12-10T15:27:20;12.67;;;7.13;;
13108;SDS011;6620;53.734;11.510;2022-12-10T15:29:46;11.30;;;5.90;;
13108;SDS011;6620;53.734;11.510;2022-12-10T15:35:05;11.03;;;6.40;;
13108;SDS011;6620;53.734;11.510;2022-12-10T15:37:33;10.48;;;5.95;;
13108;SDS011;6620;53.734;11.510;2022-12-10T15:39:59;11.68;;;6.25;;
13108;SDS011;6620;53.734;11.510;2022-12-10T15:42:36;10.80;;;6.18;;
13108;SDS011;6620;53.734;11.510;2022-12-10T15:45:08;12.27;;;6.25;;
13108;SDS011;6620;53.734;11.510;2022-12-10T15:47:33;9.45;;;5.82;;
13108;SDS011;6620;53.734;11.510;2022-12-10T15:50:02;8.93;;;5.63;;
13108;SDS011;6620;53.734;11.510;2022-12-10T15:52:29;8.77;;;5.90;;
13108;SDS011;6620;53.734;11.510;2022-12-10T15:54:54;10.40;;;6.25;;
13108;SDS011;6620;53.734;11.510;2022-12-10T15:57:24;10.73;;;6.20;;
13108;SDS011;6620;53.734;11.510;2022-12-10T15:59:53;9.18;;;5.65;;
13108;SDS011;6620;53.734;11.510;2022-12-10T16:02:25;11.65;;;5.85;;
13108;SDS011;6620;53.734;11.510;2022-12-10T16:04:51;9.88;;;5.20;;
13108;SDS011;6620;53.734;11.510;2022-12-10T16:07:16;11.48;;;5.97;;
13108;SDS011;6620;53.734;11.510;2022-12-10T16:09:42;11.07;;;5.72;;
13108;SDS011;6620;53.734;11.510;2022-12-10T16:12:09;10.68;;;5.32;;
13108;SDS011;6620;53.734;11.510;2022-12-10T16:14:35;9.82;;;5.72;;
13108;SDS011;6620;53.734;11.510;2022-12-10T16:17:01;8.88;;;5.82;;
13108;SDS011;6620;53.734;11.510;2022-12-10T16:19:26;9.20;;;5.72;;
13108;SDS011;6620;53.734;11.510;2022-12-10T16:21:51;10.05;;;6.10;;
13108;SDS011;6620;53.734;11.510;2022-12-10T16:24:17;11.07;;;5.83;;
13108;SDS011;6620;53.734;11.510;2022-12-10T16:26:42;9.40;;;5.22;;